Owen, WI (54460)

5:56 PM CDT on July 28, 2016 (GMT -0500)
Backyard, N. Andrews Ave | | Change Station

Elev 1161 ft 44.77 °N, 90.60 °W | Updated 7 seconds ago

Overcast
Overcast
63.1 °F
Feels Like 63.1 °F
N
3.2
Wind Variable Wind from North
Gusts 5.8 mph

Today
High -- | Low -- °F
--% Chance of Precip.
Yesterday
High -- | Low -- °F
Precip. -- in
Pressure 30.02 in
Visibility 10.0 miles
Clouds Overcast 4600 ft
Dew Point 61 °F
Humidity 93%
Rainfall 2.30 in
Snow Depth Not available.
5:43 AM 8:32 PM
Waning Crescent, 28% visible
METAR KMDZ 282235Z AUTO 09004KT 10SM OVC046 19/18 A3002 RMK AO2 T01850179
Pressure 30.02 in
Visibility 10.0 miles
Clouds Overcast 4600 ft
Dew Point 61 °F
Humidity 93%
Rainfall 2.30 in
Snow Depth Not available.
5:43 AM 8:32 PM
Waning Crescent, 28% visible
METAR KMDZ 282235Z AUTO 09004KT 10SM OVC046 19/18 A3002 RMK AO2 T01850179

10-Day Weather Forecast

Almanac

Astronomy

Jul. 28, 2016 Rise Set
Actual Time
Civil Twilight
Nautical Twilight
Astronomical Twilight
Moon
Length of Visible Light
Length of Day
Tomorrow will be .
, % of the Moon is Illuminated

Today's Extremes

State Highs State Lows

Community

WunderPhotos

Upload Photos

1,928,220 photos uploaded!

WunderBlog® & News

Nearby

Air Quality

  Air Quality AQ Index Pollutant
Not available.

Snow Depth

Station Depth Elevation

Earthquake Activity

City Distance Mag. Time & Date
Minimum magnitude displayed is 2.5.

Coastal Water Temperatures

Place Temperature

Stations

Nearby Weather Stations

Station Location Temp. Windchill Dew Point Humidity Wind Precip. Elev Updated Type
                   

Watches & Warnings

There are currently no watches in effect.